Time;durP1;ratioP1;P1;durP2;ratioP2;P2;SDS_P1;SDS_P2;PMS_P1;PMS_P2;Temp;Humidity;BMP_temperature;BMP_pressure;BME280_temperature;BME280_humidity;BME280_pressure;Samples;Min_cycle;Max_cycle;Signal;HPM_P1;HPM_P2
2023/04/23 00:01:45;;;;;;;69.63;41.67;;;;;;;7.58;100.00;100674.00;5090200;28;20036;-46
2023/04/23 00:04:10;;;;;;;70.10;43.08;;;;;;;7.53;100.00;100672.13;5090624;28;20106;-50
2023/04/23 00:06:37;;;;;;;67.93;41.92;;;;;;;7.53;100.00;100661.13;5090984;28;20454;-45
2023/04/23 00:09:02;;;;;;;66.18;41.47;;;;;;;7.49;100.00;100660.88;5090896;28;20036;-51
2023/04/23 00:11:28;;;;;;;69.32;42.53;;;;;;;7.47;100.00;100663.09;5090661;28;20392;-47
2023/04/23 00:13:54;;;;;;;66.15;41.22;;;;;;;7.44;100.00;100655.41;5090580;28;20133;-51
2023/04/23 00:16:20;;;;;;;66.50;41.50;;;;;;;7.42;100.00;100654.88;5090439;28;20397;-48
2023/04/23 00:18:45;;;;;;;65.57;42.22;;;;;;;7.40;100.00;100650.75;5091022;28;20469;-47
2023/04/23 00:21:11;;;;;;;64.80;42.13;;;;;;;7.39;100.00;100638.94;5094166;28;20028;-46
2023/04/23 00:23:38;;;;;;;66.63;41.35;;;;;;;7.36;100.00;100644.22;5090572;28;20035;-46
2023/04/23 00:26:03;;;;;;;68.28;42.88;;;;;;;7.34;100.00;100644.47;5094568;28;20031;-48
2023/04/23 00:28:29;;;;;;;68.53;42.35;;;;;;;7.35;100.00;100648.88;5094483;28;20036;-47
2023/04/23 00:30:54;;;;;;;65.35;41.08;;;;;;;7.33;100.00;100649.19;5093836;28;20031;-48
2023/04/23 00:33:19;;;;;;;65.35;41.40;;;;;;;7.32;100.00;100635.72;5094253;28;20039;-45
2023/04/23 00:35:45;;;;;;;67.25;43.22;;;;;;;7.28;100.00;100640.94;5093933;28;20380;-48
2023/04/23 00:38:10;;;;;;;64.78;41.42;;;;;;;7.26;100.00;100632.19;5093933;28;20039;-49
2023/04/23 00:40:35;;;;;;;66.15;41.50;;;;;;;7.22;100.00;100625.59;5093602;28;20330;-47
2023/04/23 00:43:01;;;;;;;63.35;39.75;;;;;;;7.21;100.00;100626.72;5093126;28;20427;-51
2023/04/23 00:45:26;;;;;;;62.78;40.42;;;;;;;7.21;100.00;100621.22;5093547;28;20051;-47
2023/04/23 00:47:52;;;;;;;66.78;40.58;;;;;;;7.20;100.00;100619.56;5091911;28;20028;-47
2023/04/23 00:50:19;;;;;;;67.70;43.60;;;;;;;7.21;100.00;100618.47;5093277;28;20027;-47
2023/04/23 00:52:44;;;;;;;61.47;39.13;;;;;;;7.15;100.00;100608.63;5094202;28;20480;-51
2023/04/23 00:55:10;;;;;;;58.55;38.80;;;;;;;7.21;100.00;100615.72;5094120;28;20024;-46
2023/04/23 00:57:36;;;;;;;57.90;38.33;;;;;;;7.15;100.00;100609.44;5093819;28;20031;-47
2023/04/23 01:00:06;;;;;;;58.20;39.03;;;;;;;7.11;100.00;100604.78;5093763;28;20020;-48
2023/04/23 01:02:33;;;;;;;58.53;38.85;;;;;;;7.12;100.00;100617.44;5093874;28;20058;-48
2023/04/23 01:05:00;;;;;;;55.70;38.78;;;;;;;7.09;100.00;100612.50;5094027;28;20103;-49
2023/04/23 01:07:26;;;;;;;57.17;39.15;;;;;;;7.10;100.00;100604.00;5093824;28;20070;-47
2023/04/23 01:09:52;;;;;;;59.78;39.33;;;;;;;7.12;100.00;100606.44;5093849;28;20028;-48
2023/04/23 01:12:18;;;;;;;57.85;38.58;;;;;;;7.13;100.00;100591.59;5076840;28;20025;-50
2023/04/23 01:14:43;;;;;;;55.03;36.70;;;;;;;7.08;100.00;100586.94;5071720;28;20032;-48
2023/04/23 01:17:11;;;;;;;58.88;39.10;;;;;;;7.15;100.00;100594.88;5088638;28;20027;-50
2023/04/23 01:19:36;;;;;;;55.25;37.05;;;;;;;7.16;100.00;100594.56;5093655;28;20051;-48
2023/04/23 01:22:02;;;;;;;53.40;37.10;;;;;;;7.16;100.00;100591.81;5093536;28;20051;-48
2023/04/23 01:24:28;;;;;;;56.60;36.72;;;;;;;7.20;100.00;100583.00;5093233;28;20031;-46
2023/04/23 01:26:54;;;;;;;55.50;36.85;;;;;;;7.21;100.00;100582.69;5093208;28;20025;-50
2023/04/23 01:29:20;;;;;;;55.38;37.30;;;;;;;7.22;100.00;100581.59;5093339;28;20047;-46
2023/04/23 01:31:46;;;;;;;57.50;37.67;;;;;;;7.22;100.00;100587.09;5093109;28;20024;-49
2023/04/23 01:34:13;;;;;;;55.05;39.47;;;;;;;7.21;100.00;100579.13;5093360;28;20111;-46
2023/04/23 01:36:40;;;;;;;53.65;36.65;;;;;;;7.19;100.00;100576.66;5091565;28;20027;-46
2023/04/23 01:39:06;;;;;;;50.72;35.00;;;;;;;7.18;100.00;100584.09;5093049;28;20556;-47
2023/04/23 01:41:31;;;;;;;51.95;36.05;;;;;;;7.20;100.00;100585.75;5093199;28;20123;-47
2023/04/23 01:43:57;;;;;;;52.35;36.08;;;;;;;7.15;100.00;100584.66;5092916;28;20465;-46
2023/04/23 01:46:22;;;;;;;51.38;35.28;;;;;;;7.14;100.00;100580.28;5092935;28;20132;-46
2023/04/23 01:48:48;;;;;;;51.67;35.45;;;;;;;7.10;100.00;100581.16;5093055;28;20107;-46
2023/04/23 01:51:13;;;;;;;54.47;37.92;;;;;;;7.08;100.00;100581.44;5093004;28;20025;-46
2023/04/23 01:53:38;;;;;;;53.97;34.38;;;;;;;7.05;100.00;100582.00;5093004;28;20024;-49
2023/04/23 01:56:04;;;;;;;54.63;36.60;;;;;;;7.06;100.00;100580.09;5092693;28;20032;-50
2023/04/23 01:58:30;;;;;;;53.03;36.05;;;;;;;7.05;100.00;100575.69;5092843;28;20101;-49
2023/04/23 02:00:55;;;;;;;52.38;35.25;;;;;;;7.03;100.00;100582.31;5092402;28;20043;-46
2023/04/23 02:03:20;;;;;;;52.70;37.53;;;;;;;6.99;100.00;100575.72;5092507;28;20040;-46
2023/04/23 02:05:46;;;;;;;55.03;37.20;;;;;;;7.01;100.00;100576.28;5092491;28;20031;-46
2023/04/23 02:08:12;;;;;;;52.95;36.75;;;;;;;7.00;100.00;100573.81;5092690;28;20583;-46
2023/04/23 02:10:37;;;;;;;50.50;35.45;;;;;;;6.99;100.00;100570.22;5092731;28;20051;-48
2023/04/23 02:13:03;;;;;;;49.35;34.03;;;;;;;6.97;100.00;100572.47;5090724;28;20465;-46
2023/04/23 02:15:28;;;;;;;51.03;35.83;;;;;;;6.97;100.00;100568.88;5092362;28;20396;-46
2023/04/23 02:17:54;;;;;;;49.90;33.60;;;;;;;6.95;100.00;100562.84;5092354;28;20028;-49
2023/04/23 02:20:24;;;;;;;47.45;34.38;;;;;;;6.90;100.00;100566.47;5090894;28;20031;-48
2023/04/23 02:22:49;;;;;;;47.60;33.60;;;;;;;6.92;100.00;100568.94;5092233;28;20402;-48
2023/04/23 02:25:16;;;;;;;45.63;32.30;;;;;;;6.89;100.00;100569.50;5092260;28;20028;-50
2023/04/23 02:27:42;;;;;;;50.03;35.38;;;;;;;6.85;100.00;100564.56;5092317;28;20057;-48
2023/04/23 02:30:09;;;;;;;45.45;33.22;;;;;;;6.87;100.00;100569.81;5092263;28;20031;-52
2023/04/23 02:32:36;;;;;;;44.15;32.53;;;;;;;6.87;100.00;100556.88;5092276;28;20058;-47
2023/04/23 02:35:02;;;;;;;46.65;32.67;;;;;;;6.86;100.00;100552.47;5091926;28;20028;-48
2023/04/23 02:37:27;;;;;;;51.13;35.15;;;;;;;6.83;100.00;100554.97;5092068;28;20474;-46
2023/04/23 02:39:53;;;;;;;45.95;33.35;;;;;;;6.86;100.00;100555.22;5091765;28;20028;-50
2023/04/23 02:42:18;;;;;;;44.35;33.22;;;;;;;6.88;100.00;100554.94;5091135;28;20059;-47
2023/04/23 02:44:43;;;;;;;43.35;32.35;;;;;;;6.89;100.00;100562.09;5091951;28;20052;-48
2023/04/23 02:47:08;;;;;;;45.10;33.13;;;;;;;6.86;100.00;100554.41;5091814;28;20818;-51
2023/04/23 02:49:34;;;;;;;42.20;32.38;;;;;;;6.87;100.00;100556.88;5091989;28;20035;-50
2023/04/23 02:51:59;;;;;;;43.67;31.60;;;;;;;6.91;100.00;100561.81;5091824;28;20047;-51
2023/04/23 02:54:25;;;;;;;41.80;31.98;;;;;;;6.91;100.00;100556.31;5092000;28;20036;-51
2023/04/23 02:56:50;;;;;;;44.70;32.00;;;;;;;6.93;100.00;100549.41;5092112;28;20489;-47
2023/04/23 02:59:15;;;;;;;43.17;32.42;;;;;;;6.95;100.00;100563.69;5091896;28;20023;-49
2023/04/23 03:01:41;;;;;;;42.40;31.33;;;;;;;6.99;100.00;100555.69;5091683;28;20024;-47
2023/04/23 03:04:06;;;;;;;46.97;35.47;;;;;;;6.99;100.00;100561.97;5091857;28;20039;-49
2023/04/23 03:06:34;;;;;;;43.85;32.65;;;;;;;6.99;100.00;100558.44;5091663;28;20030;-46
2023/04/23 03:08:59;;;;;;;45.10;32.25;;;;;;;7.01;100.00;100558.97;5091761;28;20028;-48
2023/04/23 03:11:25;;;;;;;44.35;32.03;;;;;;;7.01;100.00;100559.75;5091634;28;20148;-47
2023/04/23 03:13:50;;;;;;;42.20;30.92;;;;;;;7.08;100.00;100559.44;5091618;28;20401;-48
2023/04/23 03:16:16;;;;;;;42.28;31.60;;;;;;;7.16;100.00;100555.25;5090093;28;20082;-50
2023/04/23 03:18:41;;;;;;;43.60;32.13;;;;;;;7.16;100.00;100549.75;5091511;28;20032;-46
2023/04/23 03:21:06;;;;;;;41.65;30.63;;;;;;;7.19;100.00;100543.63;5091539;28;20036;-49
2023/04/23 03:23:31;;;;;;;43.15;31.48;;;;;;;7.25;100.00;100541.66;5091507;28;20140;-46
2023/04/23 03:25:57;;;;;;;39.55;29.98;;;;;;;7.26;100.00;100535.06;5091416;28;20123;-46
2023/04/23 03:28:22;;;;;;;40.67;30.52;;;;;;;7.31;100.00;100541.31;5089924;28;20028;-48
2023/04/23 03:30:48;;;;;;;40.35;29.95;;;;;;;7.32;100.00;100536.66;5091785;28;20059;-47
2023/04/23 03:33:13;;;;;;;40.95;31.05;;;;;;;7.30;100.00;100533.38;5091164;28;20058;-47
2023/04/23 03:35:39;;;;;;;39.85;30.13;;;;;;;7.29;100.00;100529.78;5091249;28;20028;-46
2023/04/23 03:38:04;;;;;;;39.45;30.90;;;;;;;7.26;100.00;100540.56;5091125;28;20024;-47
2023/04/23 03:40:29;;;;;;;40.80;30.35;;;;;;;7.23;100.00;100533.72;5090895;28;20489;-47
2023/04/23 03:42:56;;;;;;;41.03;31.08;;;;;;;7.22;100.00;100537.56;5091241;28;20039;-47
2023/04/23 03:45:22;;;;;;;38.95;29.10;;;;;;;7.22;100.00;100536.75;5091163;28;20346;-46
2023/04/23 03:47:47;;;;;;;39.28;29.42;;;;;;;7.21;100.00;100533.16;5091086;28;20047;-45
2023/04/23 03:50:12;;;;;;;38.83;30.35;;;;;;;7.24;100.00;100529.84;5091043;28;20792;-46
2023/04/23 03:52:38;;;;;;;40.78;30.23;;;;;;;7.26;100.00;100538.63;5090975;28;20040;-45
2023/04/23 03:55:03;;;;;;;37.70;29.48;;;;;;;7.31;100.00;100535.00;5091019;28;20081;-47
2023/04/23 03:57:29;;;;;;;42.13;30.83;;;;;;;7.31;100.00;100529.50;5090724;28;20040;-49
2023/04/23 03:59:54;;;;;;;39.83;30.42;;;;;;;7.37;100.00;100533.84;5090695;28;20119;-46
2023/04/23 04:02:20;;;;;;;40.72;31.20;;;;;;;7.40;100.00;100533.25;5090626;28;20035;-47
2023/04/23 04:04:48;;;;;;;42.15;31.67;;;;;;;7.41;100.00;100532.16;5091020;28;20024;-47
2023/04/23 04:07:13;;;;;;;39.35;29.45;;;;;;;7.42;100.00;100525.50;5090579;28;20532;-46
2023/04/23 04:09:38;;;;;;;38.42;29.80;;;;;;;7.46;100.00;100534.84;5090714;28;20162;-46
2023/04/23 04:12:04;;;;;;;38.90;29.75;;;;;;;7.47;100.00;100539.22;5090679;28;20031;-46
2023/04/23 04:14:31;;;;;;;36.97;29.55;;;;;;;7.48;100.00;100540.88;5090751;28;20365;-46
2023/04/23 04:16:57;;;;;;;39.30;29.58;;;;;;;7.48;100.00;100535.38;5090450;28;20039;-46
2023/04/23 04:19:22;;;;;;;40.00;30.75;;;;;;;7.49;100.00;100548.03;5090627;28;20433;-46
2023/04/23 04:21:48;;;;;;;38.55;30.30;;;;;;;7.47;100.00;100544.72;5090566;28;20032;-49
2023/04/23 04:24:13;;;;;;;37.97;28.90;;;;;;;7.51;100.00;100544.16;5090550;28;20024;-45
2023/04/23 04:26:39;;;;;;;41.47;30.83;;;;;;;7.50;100.00;100543.31;5090741;28;20062;-46
2023/04/23 04:29:05;;;;;;;38.95;29.73;;;;;;;7.51;100.00;100544.97;5090680;28;20362;-46
2023/04/23 04:31:31;;;;;;;38.38;30.35;;;;;;;7.51;100.00;100538.66;5090322;28;20056;-47
2023/04/23 04:33:57;;;;;;;38.35;29.25;;;;;;;7.53;100.00;100544.66;5090283;28;20124;-47
2023/04/23 04:36:27;;;;;;;38.67;29.40;;;;;;;7.53;100.00;100545.50;5090435;28;20032;-47
2023/04/23 04:38:54;;;;;;;38.25;28.83;;;;;;;7.57;100.00;100549.28;5090107;28;20512;-45
2023/04/23 04:41:21;;;;;;;37.47;28.75;;;;;;;7.59;100.00;100551.75;5088876;28;20055;-50
2023/04/23 04:43:47;;;;;;;38.30;29.00;;;;;;;7.58;100.00;100547.38;5090329;28;20060;-48
2023/04/23 04:46:12;;;;;;;36.60;27.52;;;;;;;7.59;100.00;100544.31;5090565;28;20078;-47
2023/04/23 04:48:38;;;;;;;36.65;27.80;;;;;;;7.62;100.00;100538.22;5090336;28;20405;-46
2023/04/23 04:51:03;;;;;;;37.97;27.05;;;;;;;7.63;100.00;100541.78;5090326;28;20032;-47
2023/04/23 04:53:28;;;;;;;38.65;28.83;;;;;;;7.63;100.00;100539.03;5090292;28;20031;-46
2023/04/23 04:55:54;;;;;;;35.92;27.38;;;;;;;7.63;100.00;100539.03;5090214;28;20032;-46
2023/04/23 04:58:19;;;;;;;37.45;27.42;;;;;;;7.62;100.00;100534.63;5090379;28;20472;-46
2023/04/23 05:00:45;;;;;;;37.65;26.42;;;;;;;7.60;100.00;100534.13;5090127;28;20028;-50
2023/04/23 05:03:11;;;;;;;37.88;27.35;;;;;;;7.59;100.00;100541.56;5090210;28;20108;-47
2023/04/23 05:05:36;;;;;;;38.17;27.40;;;;;;;7.57;100.00;100538.28;5092046;28;20036;-45
2023/04/23 05:08:01;;;;;;;37.90;27.42;;;;;;;7.55;100.00;100540.53;5093728;28;20074;-48
2023/04/23 05:10:28;;;;;;;35.42;26.83;;;;;;;7.54;100.00;100547.13;5093951;28;20071;-47
2023/04/23 05:12:55;;;;;;;36.92;27.38;;;;;;;7.54;100.00;100547.13;5092258;28;20085;-47
2023/04/23 05:15:20;;;;;;;36.65;27.95;;;;;;;7.58;100.00;100547.38;5093849;28;20036;-47
2023/04/23 05:17:46;;;;;;;35.40;27.08;;;;;;;7.61;100.00;100549.50;5093653;28;20020;-47
2023/04/23 05:20:11;;;;;;;38.55;29.27;;;;;;;7.65;100.00;100548.63;5091997;28;20054;-45
2023/04/23 05:22:38;;;;;;;37.17;27.63;;;;;;;7.65;100.00;100545.06;5093406;28;20028;-48
2023/04/23 05:25:04;;;;;;;35.65;26.58;;;;;;;7.65;100.00;100532.13;5093932;28;20074;-47
2023/04/23 05:27:30;;;;;;;35.47;27.02;;;;;;;7.70;100.00;100542.25;5093679;28;20495;-45
2023/04/23 05:29:55;;;;;;;36.00;26.83;;;;;;;7.71;100.00;100540.31;5093604;28;20028;-45
2023/04/23 05:32:20;;;;;;;35.60;27.25;;;;;;;7.75;100.00;100547.72;5093378;28;20028;-48
2023/04/23 05:34:46;;;;;;;36.38;27.27;;;;;;;7.84;100.00;100544.28;5093146;28;20036;-49
2023/04/23 05:37:11;;;;;;;38.60;27.98;;;;;;;7.96;100.00;100552.97;5093230;28;20028;-49
2023/04/23 05:39:36;;;;;;;37.85;27.38;;;;;;;8.04;100.00;100544.03;5093287;28;20226;-46
2023/04/23 05:42:02;;;;;;;36.17;26.85;;;;;;;8.14;100.00;100545.81;5092994;28;20052;-47
2023/04/23 05:44:28;;;;;;;36.35;25.95;;;;;;;8.21;100.00;100548.19;5093253;28;20040;-45
2023/04/23 05:46:53;;;;;;;36.40;27.42;;;;;;;8.24;100.00;100553.13;5092944;28;20024;-46
2023/04/23 05:49:19;;;;;;;33.55;25.67;;;;;;;8.29;100.00;100544.78;5092488;28;20032;-50
2023/04/23 05:51:44;;;;;;;36.40;25.85;;;;;;;8.37;100.00;100546.03;5085363;28;20081;-46
2023/04/23 05:54:09;;;;;;;32.35;24.52;;;;;;;8.41;100.00;100547.91;5092738;28;20035;-47
2023/04/23 05:56:35;;;;;;;34.85;25.45;;;;;;;8.43;100.00;100542.09;5092838;28;20032;-47
2023/04/23 05:59:00;;;;;;;33.13;23.23;;;;;;;8.48;100.00;100543.97;5092122;28;20519;-47
2023/04/23 06:01:25;;;;;;;34.38;25.55;;;;;;;8.51;100.00;100541.44;5092731;28;20027;-47
2023/04/23 06:03:51;;;;;;;33.42;24.85;;;;;;;8.56;100.00;100546.88;5092652;28;20147;-46
2023/04/23 06:06:16;;;;;;;32.72;25.20;;;;;;;8.62;100.00;100544.03;5092353;28;20028;-47
2023/04/23 06:08:41;;;;;;;33.67;24.48;;;;;;;8.66;100.00;100536.81;5079122;28;20430;-50
2023/04/23 06:11:06;;;;;;;34.90;26.13;;;;;;;8.72;100.00;100541.94;5090544;28;20024;-50
2023/04/23 06:13:32;;;;;;;34.38;25.23;;;;;;;8.80;100.00;100548.69;5089912;28;20493;-48
2023/04/23 06:15:58;;;;;;;34.22;24.83;;;;;;;8.84;100.00;100540.63;5092225;28;20039;-46
2023/04/23 06:18:23;;;;;;;32.25;24.23;;;;;;;8.89;100.00;100543.31;5091849;28;20435;-48
2023/04/23 06:20:50;;;;;;;33.65;24.75;;;;;;;8.93;100.00;100526.97;5092151;28;20039;-50
2023/04/23 06:23:16;;;;;;;33.28;24.83;;;;;;;8.97;100.00;100526.06;5082485;28;20021;-48
2023/04/23 06:25:41;;;;;;;34.85;25.17;;;;;;;9.04;100.00;100528.44;5082501;28;20081;-47
2023/04/23 06:28:06;;;;;;;33.30;24.90;;;;;;;9.13;100.00;100523.03;5092182;28;20030;-47
2023/04/23 06:30:31;;;;;;;31.85;24.98;;;;;;;9.19;100.00;100519.88;5092261;28;20039;-46
2023/04/23 06:32:57;;;;;;;31.23;23.85;;;;;;;9.25;100.00;100517.03;5091974;28;20028;-51
2023/04/23 06:35:22;;;;;;;31.48;23.73;;;;;;;9.31;100.00;100508.31;5092077;28;20489;-48
2023/04/23 06:37:47;;;;;;;31.05;23.60;;;;;;;9.38;100.00;100504.34;5092032;28;20040;-48
2023/04/23 06:40:13;;;;;;;33.30;24.45;;;;;;;9.46;100.00;100498.91;5082073;28;20028;-47
2023/04/23 06:42:39;;;;;;;33.25;23.85;;;;;;;9.55;100.00;100506.47;5092169;28;20043;-49
2023/04/23 06:45:05;;;;;;;30.50;23.75;;;;;;;9.66;100.00;100503.22;5092443;28;20493;-49
2023/04/23 06:47:30;;;;;;;31.50;22.90;;;;;;;9.75;100.00;100502.50;5092370;28;20031;-46
2023/04/23 06:49:58;;;;;;;30.98;23.10;;;;;;;9.80;100.00;100491.31;5090726;28;20040;-48
2023/04/23 06:52:24;;;;;;;31.30;23.33;;;;;;;9.93;100.00;100484.13;5092142;28;20082;-48
2023/04/23 06:54:49;;;;;;;31.10;22.67;;;;;;;10.01;100.00;100496.41;5090362;28;20056;-49
2023/04/23 06:57:15;;;;;;;28.50;22.45;;;;;;;10.07;100.00;100493.22;5092139;28;20111;-47
2023/04/23 06:59:40;;;;;;;29.38;21.52;;;;;;;10.15;100.00;100491.66;5091974;28;20449;-47
2023/04/23 07:02:06;;;;;;;27.27;20.58;;;;;;;10.22;100.00;100489.28;5091919;28;20074;-51
2023/04/23 07:04:31;;;;;;;28.30;20.75;;;;;;;10.30;100.00;100488.53;5086586;28;20032;-47
2023/04/23 07:06:57;;;;;;;28.48;20.17;;;;;;;10.40;100.00;100493.00;5092082;28;20028;-50
2023/04/23 07:09:22;;;;;;;25.10;19.20;;;;;;;10.47;100.00;100492.59;5091846;28;20039;-47
2023/04/23 07:11:48;;;;;;;25.23;18.10;;;;;;;10.51;100.00;100496.38;5092019;28;20032;-49
2023/04/23 07:14:13;;;;;;;25.63;19.13;;;;;;;10.59;100.00;100487.31;5092103;28;20480;-47
2023/04/23 07:16:38;;;;;;;25.25;17.83;;;;;;;10.63;100.00;100489.47;5089013;28;20024;-47
2023/04/23 07:19:04;;;;;;;24.55;17.38;;;;;;;10.71;100.00;100488.69;5079797;28;20482;-46
2023/04/23 07:21:29;;;;;;;25.23;17.77;;;;;;;10.79;100.00;100489.84;5072018;28;20051;-48
2023/04/23 07:23:56;;;;;;;25.25;16.58;;;;;;;10.85;100.00;100486.66;5079304;28;20071;-56
2023/04/23 07:26:23;;;;;;;24.27;16.52;;;;;;;10.93;100.00;100479.53;5078123;28;20047;-51
2023/04/23 07:28:49;;;;;;;24.08;16.10;;;;;;;10.99;100.00;100483.00;5078021;28;20051;-50
2023/04/23 07:31:16;;;;;;;27.10;17.13;;;;;;;11.11;100.00;100482.38;5088649;28;20238;-48
2023/04/23 07:33:41;;;;;;;24.75;16.50;;;;;;;11.19;100.00;100481.59;5085041;27;20128;-47
2023/04/23 07:36:07;;;;;;;25.55;15.65;;;;;;;11.28;100.00;100487.19;5089923;28;20020;-49
2023/04/23 07:38:32;;;;;;;22.77;14.80;;;;;;;11.36;100.00;100478.09;5089654;28;20039;-47
2023/04/23 07:40:57;;;;;;;22.63;14.82;;;;;;;11.41;100.00;100486.25;5089950;28;20128;-47
2023/04/23 07:43:23;;;;;;;24.92;14.77;;;;;;;11.49;100.00;100484.66;5089750;28;20028;-51
2023/04/23 07:45:48;;;;;;;24.63;14.50;;;;;;;11.58;100.00;100484.66;5089650;28;20024;-47
2023/04/23 07:48:13;;;;;;;22.92;14.00;;;;;;;11.64;100.00;100480.63;5087971;28;20096;-50
2023/04/23 07:50:38;;;;;;;22.13;13.40;;;;;;;11.70;100.00;100480.16;5089725;28;20032;-49
2023/04/23 07:53:04;;;;;;;25.55;13.48;;;;;;;11.77;100.00;100468.56;5089409;28;20450;-46
2023/04/23 07:55:29;;;;;;;22.80;13.70;;;;;;;11.83;100.00;100470.06;5089626;28;20035;-50
2023/04/23 07:57:54;;;;;;;23.00;13.43;;;;;;;11.92;100.00;100464.50;5089698;28;20059;-49
2023/04/23 08:00:19;;;;;;;22.00;13.15;;;;;;;11.96;100.00;100473.00;5089420;28;20123;-47
2023/04/23 08:02:45;;;;;;;19.90;12.55;;;;;;;12.02;100.00;100466.19;5089488;28;20040;-48
2023/04/23 08:05:11;;;;;;;22.90;13.68;;;;;;;12.08;100.00;100469.63;5089528;28;20046;-47
2023/04/23 08:07:36;;;;;;;20.88;13.30;;;;;;;12.16;100.00;100469.59;5089145;28;20111;-47
2023/04/23 08:10:04;;;;;;;24.40;14.63;;;;;;;12.21;100.00;100468.63;5089496;28;20039;-51
2023/04/23 08:12:30;;;;;;;23.40;13.20;;;;;;;12.26;100.00;100467.66;5089548;28;20021;-49
2023/04/23 08:14:55;;;;;;;22.00;12.40;;;;;;;12.32;100.00;100467.16;5087748;28;20407;-49
2023/04/23 08:17:21;;;;;;;21.08;12.45;;;;;;;12.40;100.00;100461.94;5089796;28;20453;-48
2023/04/23 08:19:46;;;;;;;21.70;12.82;;;;;;;12.50;100.00;100455.25;5089412;28;20032;-49
2023/04/23 08:22:12;;;;;;;22.52;12.35;;;;;;;12.56;100.00;100459.47;5089702;28;20036;-49
2023/04/23 08:24:37;;;;;;;22.20;12.48;;;;;;;12.64;100.00;100462.25;5087810;28;20056;-51
2023/04/23 08:27:02;;;;;;;22.65;12.52;;;;;;;12.71;97.87;100470.03;5089944;28;20561;-49
2023/04/23 08:29:28;;;;;;;22.73;12.40;;;;;;;12.72;97.92;100459.78;5084975;28;20043;-49
2023/04/23 08:31:54;;;;;;;21.42;12.20;;;;;;;12.78;98.81;100462.03;5088381;28;20040;-51
2023/04/23 08:34:19;;;;;;;21.30;11.60;;;;;;;12.89;97.68;100458.91;5089627;28;20044;-47
2023/04/23 08:36:45;;;;;;;21.65;11.10;;;;;;;13.00;96.05;100449.06;5089538;28;20020;-52
2023/04/23 08:39:10;;;;;;;19.60;10.60;;;;;;;13.08;94.30;100450.97;5089477;28;20165;-51
2023/04/23 08:41:43;;;;;;;22.98;10.48;;;;;;;13.16;93.44;100446.53;5091250;28;20047;-47
2023/04/23 08:44:15;;;;;;;20.48;11.35;;;;;;;13.27;92.68;100450.59;5093350;28;20089;-46
2023/04/23 08:46:43;;;;;;;19.20;10.00;;;;;;;13.36;92.98;100445.00;5093160;28;20036;-49
2023/04/23 08:49:14;;;;;;;21.10;10.52;;;;;;;13.52;93.68;100450.00;5092840;28;20055;-49
2023/04/23 08:51:45;;;;;;;16.92;10.30;;;;;;;13.64;92.99;100447.31;5092602;28;20031;-48
2023/04/23 08:54:14;;;;;;;21.38;10.05;;;;;;;13.72;90.63;100440.88;5093077;28;20035;-47
2023/04/23 08:56:40;;;;;;;20.48;9.65;;;;;;;13.86;88.34;100445.34;5092814;28;20035;-48
2023/04/23 08:59:06;;;;;;;20.63;10.20;;;;;;;13.98;89.68;100436.28;5082802;28;20028;-50
2023/04/23 09:01:32;;;;;;;18.10;9.52;;;;;;;14.12;88.71;100436.81;5093171;28;20077;-51
2023/04/23 09:03:59;;;;;;;18.60;9.77;;;;;;;14.22;88.26;100434.75;5092890;28;20016;-50
2023/04/23 09:06:25;;;;;;;17.67;9.40;;;;;;;14.29;85.17;100435.00;5093035;28;20537;-52
2023/04/23 09:08:51;;;;;;;19.45;9.52;;;;;;;14.32;83.68;100439.91;5089976;28;20024;-51
2023/04/23 09:11:18;;;;;;;21.08;9.10;;;;;;;14.32;82.41;100451.03;5072753;28;20170;-48
2023/04/23 09:13:43;;;;;;;19.55;9.32;;;;;;;14.32;80.31;100439.91;5074410;28;20112;-47
2023/04/23 09:16:09;;;;;;;16.48;8.60;;;;;;;14.28;79.42;100439.78;5093062;28;20491;-49
2023/04/23 09:18:35;;;;;;;16.85;9.43;;;;;;;14.33;81.74;100428.44;5093234;28;20024;-48
2023/04/23 09:21:02;;;;;;;15.07;8.68;;;;;;;14.47;82.89;100430.09;5092862;28;20028;-48
2023/04/23 09:23:27;;;;;;;15.38;8.40;;;;;;;14.56;79.69;100439.19;5092982;28;20028;-49
2023/04/23 09:25:55;;;;;;;17.73;8.70;;;;;;;14.59;78.06;100429.31;5088395;28;20474;-47
2023/04/23 09:28:33;;;;;;;16.98;8.00;;;;;;;14.59;78.04;100438.50;5092673;28;20508;-51
2023/04/23 09:30:58;;;;;;;16.83;8.82;;;;;;;14.71;80.33;100425.78;5092150;28;20039;-48
2023/04/23 09:33:24;;;;;;;15.95;9.07;;;;;;;14.77;79.58;100428.00;5091160;28;20201;-51
2023/04/23 09:35:49;;;;;;;18.98;8.85;;;;;;;14.92;78.70;100420.97;5074000;28;20055;-47
2023/04/23 09:38:15;;;;;;;17.65;7.82;;;;;;;15.09;78.98;100419.09;5072095;28;20040;-50
2023/04/23 09:40:40;;;;;;;15.25;8.50;;;;;;;15.21;78.57;100415.53;5071718;28;20059;-49
2023/04/23 09:43:09;;;;;;;18.08;9.00;;;;;;;15.33;76.75;100423.06;5072429;28;20024;-48
2023/04/23 09:45:34;;;;;;;14.70;8.35;;;;;;;15.52;75.19;100414.94;5084462;28;20032;-50
2023/04/23 09:48:00;;;;;;;19.90;8.70;;;;;;;15.72;72.77;100417.91;5092479;28;20485;-49
2023/04/23 09:50:37;;;;;;;15.88;8.50;;;;;;;15.84;69.98;100412.31;5092017;28;20036;-48
2023/04/23 09:53:05;;;;;;;16.88;7.68;;;;;;;15.85;66.01;100413.94;5090554;28;20020;-48
2023/04/23 09:55:37;;;;;;;15.80;7.95;;;;;;;15.98;64.80;100406.34;5091597;28;20039;-48
2023/04/23 09:58:04;;;;;;;17.00;7.60;;;;;;;16.07;67.44;100406.22;5092497;28;20114;-48
2023/04/23 10:00:37;;;;;;;16.98;8.18;;;;;;;16.21;67.97;100392.66;5087237;28;20455;-49
2023/04/23 10:03:05;;;;;;;17.52;8.48;;;;;;;16.27;65.92;100395.19;5072152;28;20056;-49
2023/04/23 10:05:31;;;;;;;15.82;8.10;;;;;;;16.30;66.24;100398.09;5085788;28;20040;-48
2023/04/23 10:07:56;;;;;;;15.75;8.13;;;;;;;16.30;65.76;100389.72;5092015;28;20036;-49
2023/04/23 10:10:22;;;;;;;13.23;8.10;;;;;;;16.35;65.60;100391.44;5091821;28;20032;-47
2023/04/23 10:12:51;;;;;;;15.57;7.95;;;;;;;16.26;63.64;100388.78;5091942;28;20564;-46
2023/04/23 10:15:16;;;;;;;15.45;8.10;;;;;;;16.21;64.86;100398.22;5091882;28;20027;-48
2023/04/23 10:17:42;;;;;;;18.77;8.70;;;;;;;16.22;63.52;100394.28;5091682;28;20425;-50
2023/04/23 10:20:08;;;;;;;18.40;8.88;;;;;;;16.28;64.66;100394.84;5087238;28;20085;-49
2023/04/23 10:22:36;;;;;;;17.55;8.43;;;;;;;16.29;63.43;100390.09;5090105;28;20032;-52
2023/04/23 10:25:08;;;;;;;15.98;8.32;;;;;;;16.38;64.43;100390.75;5091383;28;20449;-48
2023/04/23 10:27:40;;;;;;;18.05;8.20;;;;;;;16.36;64.03;100385.50;5091407;28;20028;-49
2023/04/23 10:30:07;;;;;;;18.08;8.02;;;;;;;16.43;62.67;100390.47;5091358;28;20032;-47
2023/04/23 10:32:33;;;;;;;16.00;7.60;;;;;;;16.53;62.92;100394.72;5089779;28;20024;-48
2023/04/23 10:34:58;;;;;;;15.27;8.25;;;;;;;16.62;63.58;100384.19;5090881;28;20408;-51
2023/04/23 10:37:24;;;;;;;18.15;8.68;;;;;;;16.63;63.15;100382.22;5091394;28;20058;-47
2023/04/23 10:39:54;;;;;;;14.52;8.23;;;;;;;16.63;64.04;100379.41;5090986;28;20027;-51
2023/04/23 10:42:21;;;;;;;16.25;8.63;;;;;;;16.69;63.99;100380.75;5088891;28;20258;-48
2023/04/23 10:44:46;;;;;;;15.80;8.00;;;;;;;16.67;63.27;100369.97;5088481;28;20036;-48
2023/04/23 10:47:14;;;;;;;17.52;8.40;;;;;;;16.72;64.31;100368.88;5090364;28;20066;-48
2023/04/23 10:49:40;;;;;;;16.15;8.38;;;;;;;16.75;64.60;100362.59;5090254;28;20107;-47
2023/04/23 10:52:14;;;;;;;17.52;8.60;;;;;;;16.76;65.09;100357.78;5090238;28;20035;-48
2023/04/23 10:54:47;;;;;;;16.05;8.38;;;;;;;16.74;63.49;100368.50;5089377;28;20031;-49
2023/04/23 10:57:12;;;;;;;17.95;8.20;;;;;;;16.68;63.42;100365.16;5090978;28;20103;-49
2023/04/23 10:59:40;;;;;;;17.13;8.40;;;;;;;16.68;63.55;100366.00;5089627;28;20126;-49
2023/04/23 11:02:12;;;;;;;12.90;7.82;;;;;;;16.67;64.41;100349.59;5089448;28;20032;-51
2023/04/23 11:04:44;;;;;;;16.13;8.07;;;;;;;16.79;65.99;100346.69;5090019;28;20047;-47